Gobernador Roca, Argentina
Current Conditions -  °F | °C
As of 6:00 AM on Monday 22 Dec 2014 (Local Time) from SGEN Reporting Station
Overcast Overcast  
Wind Chill: 64°   Ceiling: 1500
Heat Index: 64°   Visibility: 6mi
Dew Point: 61°   Wind: 17mph
Humidity: 88%   Direction: 270°W
Pressure: 29.88"   Gusts: NA
Location:  27.18°S, 55.47°W
Report Text: SGEN 220900Z 27015KT 9999 OVC015 18/16 Q1012
Loading
Personal Weather Stations






























Interactive Weather Map New forecast layout! Learn more

10-Day Weather Forecast

Advertisements
Track Severe Weather on mobile